Time;durP1;ratioP1;P1;durP2;ratioP2;P2;SDS_P1;SDS_P2;PMS_P1;PMS_P2;Temp;Humidity;BMP_temperature;BMP_pressure;BME280_temperature;BME280_humidity;BME280_pressure;Samples;Min_cycle;Max_cycle;Signal;HPM_P1;HPM_P2
2022/08/20 00:00:06;;;;;;;376.80;332.90;;;;;;;28.96;47.63;99099.75;348286;28;1124;-74
2022/08/20 00:00:17;;;;;;;378.67;332.33;;;;;;;28.96;48.10;99102.47;346515;28;943;-74
2022/08/20 00:00:30;;;;;;;379.63;331.42;;;;;;;28.98;48.01;99107.66;345668;28;1585;-74
2022/08/20 00:00:43;;;;;;;377.15;328.33;;;;;;;28.97;47.57;99095.22;347276;28;990;-74
2022/08/20 00:00:54;;;;;;;371.88;321.56;;;;;;;28.96;47.80;99104.31;345572;28;943;-74
2022/08/20 00:01:04;;;;;;;375.27;324.67;;;;;;;28.93;47.71;99100.16;347430;28;1469;-74
2022/08/20 00:01:15;;;;;;;376.73;329.05;;;;;;;28.94;47.65;99103.69;347258;28;1082;-74
2022/08/20 00:01:25;;;;;;;378.37;332.57;;;;;;;28.91;47.58;99096.81;347144;28;880;-74
2022/08/20 00:01:36;;;;;;;374.63;327.60;;;;;;;28.91;47.72;99102.19;347217;28;880;-74
2022/08/20 00:01:46;;;;;;;375.90;326.60;;;;;;;28.92;48.08;99103.03;344727;28;879;-74
2022/08/20 00:01:57;;;;;;;378.05;327.85;;;;;;;28.92;48.23;99092.25;346028;28;832;-74
2022/08/20 00:02:07;;;;;;;380.50;329.50;;;;;;;28.92;48.19;99103.03;348394;28;1052;-74
2022/08/20 00:02:18;;;;;;;381.20;331.45;;;;;;;28.89;47.66;99106.13;342768;28;1359;-74
2022/08/20 00:02:28;;;;;;;382.57;335.57;;;;;;;28.82;47.55;99102.50;342015;28;1256;-74
2022/08/20 00:02:43;;;;;;;382.92;335.92;;;;;;;28.76;47.70;99096.84;345783;28;931;-74
2022/08/20 00:02:59;;;;;;;381.20;328.17;;;;;;;28.69;47.38;99098.63;345817;28;1295;-74
2022/08/20 00:03:16;;;;;;;376.38;326.42;;;;;;;28.69;47.37;99104.00;344579;28;935;-74
2022/08/20 00:03:30;;;;;;;376.52;327.50;;;;;;;28.69;47.82;99103.19;347054;28;1080;-74
2022/08/20 00:03:40;;;;;;;380.77;331.35;;;;;;;28.70;47.55;99103.00;346207;28;888;-74
2022/08/20 00:03:51;;;;;;;381.83;334.75;;;;;;;28.69;47.91;99098.63;344168;28;910;-74
2022/08/20 00:04:01;;;;;;;380.47;332.07;;;;;;;28.70;47.47;99105.69;343444;28;1445;-74
2022/08/20 00:04:13;;;;;;;377.42;324.65;;;;;;;28.68;47.21;99102.34;343077;28;1084;-74
2022/08/20 00:04:23;;;;;;;377.02;324.13;;;;;;;28.65;47.39;99101.88;337677;29;1506;-74
2022/08/20 00:04:34;;;;;;;379.52;327.10;;;;;;;28.63;47.29;99102.06;335968;29;1434;-74
2022/08/20 00:04:44;;;;;;;380.27;329.63;;;;;;;28.63;47.84;99104.78;336015;29;1700;-74
2022/08/20 00:04:55;;;;;;;380.83;331.33;;;;;;;28.64;47.51;99102.91;333872;29;1382;-74
2022/08/20 00:05:06;;;;;;;380.75;337.48;;;;;;;28.63;47.54;99103.94;336590;29;1919;-74
2022/08/20 00:05:20;;;;;;;381.30;339.17;;;;;;;28.64;48.00;99095.66;337832;29;1163;-74
2022/08/20 00:05:36;;;;;;;380.15;336.65;;;;;;;28.66;47.75;99103.56;337762;29;992;-74
2022/08/20 00:05:53;;;;;;;378.90;332.00;;;;;;;28.68;47.94;99102.34;336283;29;1377;-74
2022/08/20 00:06:14;;;;;;;382.35;333.55;;;;;;;28.72;47.72;99098.25;339439;29;1460;-74
2022/08/20 00:06:24;;;;;;;384.05;332.25;;;;;;;28.74;47.67;99100.75;332692;29;997;-73
2022/08/20 00:06:35;;;;;;;381.10;333.13;;;;;;;28.73;47.72;99105.28;334142;29;1813;-73
2022/08/20 00:06:45;;;;;;;378.40;330.80;;;;;;;28.74;47.54;99106.13;333602;29;2125;-73
2022/08/20 00:06:55;;;;;;;378.87;329.23;;;;;;;28.72;47.38;99103.63;333827;29;1416;-73
2022/08/20 00:07:06;;;;;;;378.00;331.33;;;;;;;28.72;47.86;99108.19;335261;29;2160;-73
2022/08/20 00:07:16;;;;;;;380.98;337.05;;;;;;;28.72;47.40;99097.41;334226;29;1665;-73
2022/08/20 00:07:27;;;;;;;381.70;339.50;;;;;;;28.73;47.33;99108.00;334013;29;1209;-73
2022/08/20 00:07:37;;;;;;;381.60;338.05;;;;;;;28.74;47.43;99100.75;330144;29;1546;-73
2022/08/20 00:07:47;;;;;;;383.57;341.13;;;;;;;28.73;47.80;99108.00;329885;29;1365;-73
2022/08/20 00:07:59;;;;;;;385.10;340.50;;;;;;;28.73;47.85;99104.47;330116;29;1803;-73
2022/08/20 00:08:10;;;;;;;385.95;342.35;;;;;;;28.73;47.67;99102.59;331445;29;965;-73
2022/08/20 00:08:20;;;;;;;384.10;336.00;;;;;;;28.74;47.57;99101.59;328648;29;2084;-73
2022/08/20 00:08:30;;;;;;;383.30;336.23;;;;;;;28.75;47.69;99100.56;324291;30;2319;-73
2022/08/20 00:08:41;;;;;;;381.27;330.80;;;;;;;28.74;47.63;99104.28;320677;30;1380;-73
2022/08/20 00:08:52;;;;;;;379.53;327.73;;;;;;;28.75;47.26;99100.56;320086;30;2463;-73
2022/08/20 00:09:02;;;;;;;378.23;327.58;;;;;;;28.76;47.72;99099.53;320690;30;2817;-73
2022/08/20 00:09:13;;;;;;;376.70;328.33;;;;;;;28.77;47.63;99095.81;321691;30;2870;-73
2022/08/20 00:09:23;;;;;;;376.90;332.90;;;;;;;28.78;47.49;99102.88;325325;30;784;-73
2022/08/20 00:09:34;;;;;;;378.50;336.60;;;;;;;28.77;47.30;99101.19;321591;30;1799;-73
2022/08/20 00:09:44;;;;;;;377.73;333.05;;;;;;;28.76;47.71;99107.63;321399;30;1251;-73
2022/08/20 00:09:54;;;;;;;380.43;331.03;;;;;;;28.73;47.29;99097.22;321597;30;1212;-73
2022/08/20 00:10:05;;;;;;;381.35;329.50;;;;;;;28.68;47.36;99102.34;323202;30;2066;-73
2022/08/20 00:10:16;;;;;;;383.20;334.80;;;;;;;28.67;47.81;99100.66;321885;30;2550;-73
2022/08/20 00:10:27;;;;;;;381.53;336.47;;;;;;;28.67;47.71;99100.66;318390;30;1241;-73
2022/08/20 00:10:39;;;;;;;381.55;336.52;;;;;;;28.69;47.78;99101.31;318809;30;2714;-73
2022/08/20 00:10:51;;;;;;;380.40;335.95;;;;;;;28.68;47.43;99104.19;318770;30;3329;-73
2022/08/20 00:11:03;;;;;;;380.00;336.52;;;;;;;28.69;48.34;99100.47;319153;30;3321;-73
2022/08/20 00:11:17;;;;;;;382.35;340.05;;;;;;;28.69;47.75;99097.78;320143;30;3654;-73
2022/08/20 00:11:28;;;;;;;381.17;338.73;;;;;;;28.70;47.67;99094.91;319497;30;1000;-73
2022/08/20 00:11:38;;;;;;;379.33;336.40;;;;;;;28.72;47.50;99100.94;312611;31;1498;-73
2022/08/20 00:11:48;;;;;;;382.63;340.40;;;;;;;28.73;48.06;99102.59;313265;31;2624;-75
2022/08/20 00:12:00;;;;;;;379.73;336.85;;;;;;;28.74;48.12;99095.34;313508;31;2244;-74
2022/08/20 00:12:11;;;;;;;379.80;334.55;;;;;;;28.74;47.64;99101.59;318399;31;936;-74
2022/08/20 00:12:22;;;;;;;379.40;336.58;;;;;;;28.77;47.56;99098.50;322042;30;2923;-74
2022/08/20 00:12:33;;;;;;;381.20;338.85;;;;;;;28.79;47.88;99101.84;320555;30;3635;-74
2022/08/20 00:12:45;;;;;;;380.92;338.33;;;;;;;28.80;47.71;99095.44;317341;30;3822;-74
2022/08/20 00:12:55;;;;;;;381.52;336.10;;;;;;;28.83;47.33;99098.78;317051;31;1414;-75
2022/08/20 00:13:07;;;;;;;379.55;336.77;;;;;;;28.84;47.80;99103.16;316923;31;5061;-74
2022/08/20 00:13:23;;;;;;;379.42;335.15;;;;;;;28.85;47.29;99100.28;314146;31;4370;-74
2022/08/20 00:13:39;;;;;;;379.63;335.38;;;;;;;28.83;46.83;99093.41;312573;31;4790;-74
2022/08/20 00:13:51;;;;;;;381.88;339.45;;;;;;;28.82;46.79;99097.13;315439;31;4668;-74
2022/08/20 00:14:03;;;;;;;384.58;342.10;;;;;;;28.82;47.22;99102.50;315434;31;3242;-74
2022/08/20 00:14:13;;;;;;;381.30;338.92;;;;;;;28.79;47.16;99099.16;311811;31;3302;-74
2022/08/20 00:14:24;;;;;;;380.42;337.73;;;;;;;28.80;47.53;99100.81;308180;32;686;-74
2022/08/20 00:14:34;;;;;;;380.43;338.13;;;;;;;28.79;47.47;99101.84;309223;31;4066;-74
2022/08/20 00:14:45;;;;;;;383.20;339.55;;;;;;;28.79;47.88;99101.84;309288;31;5260;-74
2022/08/20 00:14:55;;;;;;;381.83;339.50;;;;;;;28.79;47.25;99099.16;312411;31;1254;-74
2022/08/20 00:15:06;;;;;;;381.30;335.80;;;;;;;28.79;47.45;99104.53;310789;31;5495;-74
2022/08/20 00:15:20;;;;;;;383.83;336.88;;;;;;;28.80;47.22;99097.28;310194;31;6163;-75
2022/08/20 00:15:32;;;;;;;386.50;340.55;;;;;;;28.81;47.44;99098.97;309655;31;6132;-74
2022/08/20 00:15:43;;;;;;;383.05;339.75;;;;;;;28.80;47.62;99100.81;307016;32;1002;-74
2022/08/20 00:15:53;;;;;;;384.07;339.73;;;;;;;28.82;47.71;99105.22;305011;32;1084;-74
2022/08/20 00:16:04;;;;;;;383.77;336.77;;;;;;;28.82;47.50;99103.34;304746;32;3963;-74
2022/08/20 00:16:15;;;;;;;382.50;338.23;;;;;;;28.80;47.46;99099.97;303070;32;4643;-74
2022/08/20 00:16:26;;;;;;;380.17;333.47;;;;;;;28.78;47.08;99097.47;303011;32;952;-75
2022/08/20 00:16:37;;;;;;;377.88;335.15;;;;;;;28.74;47.43;99096.19;303241;32;4820;-74
2022/08/20 00:16:47;;;;;;;379.00;336.50;;;;;;;28.77;47.26;99095.81;300450;32;6049;-74
2022/08/20 00:16:58;;;;;;;379.57;337.40;;;;;;;28.78;47.53;99099.34;297557;32;7277;-74
2022/08/20 00:17:08;;;;;;;378.37;333.20;;;;;;;28.78;47.78;99094.78;296825;33;847;-74
2022/08/20 00:17:19;;;;;;;377.73;334.80;;;;;;;28.79;47.56;99101.84;293351;33;7565;-74
2022/08/20 00:17:35;;;;;;;382.53;340.30;;;;;;;28.79;47.32;99099.16;288701;33;8358;-74
2022/08/20 00:17:49;;;;;;;383.92;341.30;;;;;;;28.79;47.61;99096.44;291848;33;6997;-74
2022/08/20 00:17:59;;;;;;;386.25;343.52;;;;;;;28.79;47.54;99099.16;294944;33;11638;-74
2022/08/20 00:18:10;;;;;;;388.17;345.42;;;;;;;28.80;47.15;99097.28;295715;33;906;-75
2022/08/20 00:18:21;;;;;;;392.77;350.00;;;;;;;28.80;47.47;99098.13;292999;33;5161;-74
2022/08/20 00:18:31;;;;;;;392.27;349.52;;;;;;;28.80;47.61;99100.81;291471;33;6858;-75
2022/08/20 00:18:42;;;;;;;397.38;354.33;;;;;;;28.80;47.17;99103.50;293563;33;1037;-75
2022/08/20 00:18:52;;;;;;;396.87;354.00;;;;;;;28.82;46.94;99103.34;291770;33;6956;-75
2022/08/20 00:19:04;;;;;;;394.58;351.85;;;;;;;28.83;47.52;99094.25;293525;33;7579;-74
2022/08/20 00:19:17;;;;;;;389.67;347.00;;;;;;;28.84;47.29;99095.06;292205;33;9882;-74
2022/08/20 00:19:27;;;;;;;382.75;339.05;;;;;;;28.86;47.64;99103.81;291848;33;871;-75
2022/08/20 00:19:38;;;;;;;383.13;338.20;;;;;;;28.86;47.94;99095.72;293026;33;10796;-75
2022/08/20 00:19:48;;;;;;;381.60;336.33;;;;;;;28.86;47.35;99093.84;291025;33;10731;-75
2022/08/20 00:21:36;;;;;;;303.07;253.77;;;;;;;28.90;48.10;99099.69;2498008;27;20280;-74
2022/08/20 00:21:46;;;;;;;377.87;334.93;;;;;;;28.89;48.26;99095.34;352905;28;942;-74
2022/08/20 00:21:57;;;;;;;379.47;333.47;;;;;;;28.89;48.54;99095.34;349925;28;1176;-75
2022/08/20 00:22:07;;;;;;;379.83;335.27;;;;;;;28.89;48.38;99087.25;347193;28;1222;-74
2022/08/20 00:22:17;;;;;;;377.53;327.70;;;;;;;28.90;48.39;99099.69;347174;28;1244;-74
2022/08/20 00:22:28;;;;;;;377.10;332.13;;;;;;;28.89;48.06;99095.34;347285;28;816;-75
2022/08/20 00:22:38;;;;;;;378.63;332.80;;;;;;;28.90;48.00;99094.31;347195;28;1164;-74
2022/08/20 00:22:49;;;;;;;379.77;329.63;;;;;;;28.89;48.28;99093.47;347224;28;785;-74
2022/08/20 00:23:00;;;;;;;382.52;330.05;;;;;;;28.90;48.30;99095.16;347173;28;877;-74
2022/08/20 00:23:11;;;;;;;384.85;330.75;;;;;;;28.91;48.22;99096.81;346740;28;1422;-74
2022/08/20 00:23:21;;;;;;;382.63;327.58;;;;;;;28.91;47.70;99102.19;348479;28;871;-75
2022/08/20 00:23:31;;;;;;;379.17;326.83;;;;;;;28.93;47.94;99099.31;349627;28;843;-74
2022/08/20 00:23:43;;;;;;;376.00;326.67;;;;;;;28.92;48.32;99092.25;347214;28;944;-74
2022/08/20 00:23:54;;;;;;;377.08;335.05;;;;;;;28.92;48.25;99094.94;348644;28;773;-74
2022/08/20 00:24:05;;;;;;;379.03;337.20;;;;;;;28.92;47.91;99089.56;345661;28;1066;-74
2022/08/20 00:24:15;;;;;;;385.35;343.08;;;;;;;28.90;48.57;99094.31;346282;28;820;-74
2022/08/20 00:24:25;;;;;;;386.63;344.00;;;;;;;28.91;48.51;99095.97;345837;28;868;-74
2022/08/20 00:24:36;;;;;;;390.75;347.02;;;;;;;28.89;47.93;99098.03;345761;28;1354;-74
2022/08/20 00:24:46;;;;;;;390.00;341.73;;;;;;;28.89;48.59;99095.34;346019;28;1405;-74
2022/08/20 00:24:57;;;;;;;388.20;339.95;;;;;;;28.89;48.30;99098.03;346927;28;1251;-74
2022/08/20 00:25:08;;;;;;;382.83;335.93;;;;;;;28.88;47.93;99093.66;347354;28;942;-74
2022/08/20 00:25:18;;;;;;;382.23;338.52;;;;;;;28.87;48.25;99094.69;344450;28;833;-74
2022/08/20 00:25:28;;;;;;;384.13;341.75;;;;;;;28.88;48.48;99096.38;345637;28;1045;-74
2022/08/20 00:25:39;;;;;;;386.50;344.00;;;;;;;28.89;48.06;99095.34;345944;28;840;-74
2022/08/20 00:25:50;;;;;;;387.33;344.77;;;;;;;28.89;48.51;99090.78;346815;28;1343;-74
2022/08/20 00:26:00;;;;;;;386.10;343.42;;;;;;;28.89;47.93;99092.66;345317;28;1210;-74
2022/08/20 00:26:11;;;;;;;387.57;344.73;;;;;;;28.89;48.59;99098.03;348508;28;998;-75
2022/08/20 00:26:22;;;;;;;391.88;349.08;;;;;;;28.90;47.95;99095.16;347275;28;837;-74
2022/08/20 00:26:33;;;;;;;395.05;352.08;;;;;;;28.90;48.24;99094.31;346036;28;1469;-75
2022/08/20 00:26:43;;;;;;;384.83;342.20;;;;;;;28.91;47.88;99088.72;343191;28;801;-74
2022/08/20 00:26:54;;;;;;;386.60;343.90;;;;;;;28.90;47.87;99095.16;342226;28;1376;-74
2022/08/20 00:27:04;;;;;;;383.23;340.87;;;;;;;28.90;48.17;99088.91;341738;28;794;-74
2022/08/20 00:27:15;;;;;;;386.25;343.95;;;;;;;28.90;48.10;99089.75;344422;28;889;-74
2022/08/20 00:27:25;;;;;;;383.83;341.67;;;;;;;28.92;48.06;99097.66;343004;28;1141;-74
2022/08/20 00:27:35;;;;;;;378.50;336.20;;;;;;;28.90;48.02;99097.00;342985;28;1238;-74
2022/08/20 00:27:46;;;;;;;380.17;338.00;;;;;;;28.91;48.30;99094.13;344080;28;1228;-74
2022/08/20 00:27:56;;;;;;;378.83;334.23;;;;;;;28.91;48.36;99091.44;343867;28;1119;-74
2022/08/20 00:28:07;;;;;;;379.30;336.48;;;;;;;28.91;47.71;99096.81;341699;28;1221;-74
2022/08/20 00:28:17;;;;;;;382.93;336.67;;;;;;;28.90;48.44;99091.63;341544;28;1357;-74
2022/08/20 00:28:28;;;;;;;381.50;333.08;;;;;;;28.90;48.10;99095.16;342349;28;1292;-74
2022/08/20 00:28:39;;;;;;;384.98;337.30;;;;;;;28.92;48.00;99089.56;341750;28;1269;-74
2022/08/20 00:28:49;;;;;;;384.08;341.08;;;;;;;28.92;48.31;99097.66;343048;28;842;-74
2022/08/20 00:29:00;;;;;;;385.60;342.73;;;;;;;28.90;47.92;99100.53;341148;28;893;-74
2022/08/20 00:29:10;;;;;;;382.80;338.07;;;;;;;28.90;48.33;99094.31;340260;29;1027;-74
2022/08/20 00:29:20;;;;;;;378.87;329.40;;;;;;;28.91;48.01;99094.13;340643;29;826;-74
2022/08/20 00:29:31;;;;;;;377.67;326.97;;;;;;;28.90;48.28;99097.84;339549;29;1305;-74
2022/08/20 00:29:41;;;;;;;377.10;327.85;;;;;;;28.90;48.54;99095.16;340562;28;1493;-74
2022/08/20 00:29:52;;;;;;;377.90;332.67;;;;;;;28.90;48.08;99099.69;343115;28;1286;-74
2022/08/20 00:30:07;;;;;;;378.98;336.17;;;;;;;28.90;48.17;99094.31;341490;28;1306;-74
2022/08/20 00:30:17;;;;;;;380.08;335.95;;;;;;;28.91;48.19;99099.50;339031;29;1625;-74
2022/08/20 00:30:28;;;;;;;383.42;338.25;;;;;;;28.91;48.08;99099.50;337827;29;1287;-75
2022/08/20 00:30:39;;;;;;;382.60;333.45;;;;;;;28.91;48.41;99096.81;339399;29;771;-74
2022/08/20 00:30:50;;;;;;;381.13;329.77;;;;;;;28.90;48.20;99091.63;340340;29;940;-75
2022/08/20 00:31:02;;;;;;;380.63;329.25;;;;;;;28.90;48.66;99100.53;336908;29;914;-74
2022/08/20 00:31:15;;;;;;;382.60;336.67;;;;;;;28.90;47.99;99094.31;336415;29;1022;-74
2022/08/20 00:31:26;;;;;;;380.73;336.08;;;;;;;28.90;48.89;99092.44;336886;28;1663;-74
2022/08/20 00:31:36;;;;;;;380.65;333.58;;;;;;;28.91;48.57;99093.28;338813;29;1391;-74
2022/08/20 00:31:47;;;;;;;380.57;334.43;;;;;;;28.90;48.27;99092.44;335187;29;1841;-74
2022/08/20 00:31:57;;;;;;;380.05;332.23;;;;;;;28.90;48.28;99097.00;333295;29;2421;-74
2022/08/20 00:32:07;;;;;;;381.00;336.70;;;;;;;28.88;48.28;99097.19;335272;29;1090;-74
2022/08/20 00:32:18;;;;;;;378.87;330.50;;;;;;;28.88;48.38;99091.81;337873;29;2291;-74
2022/08/20 00:32:28;;;;;;;378.05;329.17;;;;;;;28.89;48.67;99095.34;338032;29;2135;-75
2022/08/20 00:32:52;;;;;;;378.30;327.00;;;;;;;28.86;48.85;99093.84;339149;29;831;-75
2022/08/20 00:33:05;;;;;;;378.75;331.17;;;;;;;28.87;48.66;99092.00;333419;29;867;-75
2022/08/20 00:33:17;;;;;;;377.25;331.23;;;;;;;28.88;48.40;99093.66;333762;29;1443;-75
2022/08/20 00:33:28;;;;;;;377.98;330.00;;;;;;;28.86;48.96;99093.03;334681;29;1802;-74
2022/08/20 00:33:38;;;;;;;379.15;332.27;;;;;;;28.87;48.34;99092.84;336794;29;945;-75
2022/08/20 00:33:49;;;;;;;381.43;334.20;;;;;;;28.86;48.61;99093.84;332131;29;2185;-75
2022/08/20 00:33:59;;;;;;;379.88;331.25;;;;;;;28.87;48.95;99089.31;332640;29;2410;-74
2022/08/20 00:34:09;;;;;;;377.17;326.97;;;;;;;28.85;49.17;99097.59;335378;29;878;-74
2022/08/20 00:34:20;;;;;;;375.97;323.00;;;;;;;28.86;48.59;99093.03;331542;29;730;-75
2022/08/20 00:34:30;;;;;;;377.08;323.63;;;;;;;28.87;48.91;99094.69;328797;29;2637;-75
2022/08/20 00:34:41;;;;;;;380.70;329.07;;;;;;;28.87;48.92;99094.69;327987;29;2737;-74
2022/08/20 00:34:51;;;;;;;381.95;332.40;;;;;;;28.86;49.01;99098.41;331659;29;804;-74
2022/08/20 00:35:02;;;;;;;382.67;337.80;;;;;;;28.86;48.60;99093.03;332915;29;1754;-75
2022/08/20 00:35:14;;;;;;;382.70;336.52;;;;;;;28.87;48.91;99094.69;329840;29;1285;-74
2022/08/20 00:35:26;;;;;;;380.20;330.77;;;;;;;28.87;48.84;99095.53;327703;30;1054;-75
2022/08/20 00:35:40;;;;;;;380.63;331.55;;;;;;;28.86;48.92;99093.03;329020;30;895;-75
2022/08/20 00:35:55;;;;;;;380.98;333.20;;;;;;;28.86;48.71;99093.03;328976;30;864;-74
2022/08/20 00:36:08;;;;;;;381.75;337.75;;;;;;;28.85;48.67;99088.66;326646;30;856;-74
2022/08/20 00:36:19;;;;;;;380.42;329.75;;;;;;;28.84;48.46;99095.06;320288;30;3254;-75
2022/08/20 00:36:29;;;;;;;379.77;327.77;;;;;;;28.84;48.96;99095.06;319410;30;3370;-74
2022/08/20 00:36:40;;;;;;;382.42;330.98;;;;;;;28.84;48.76;99095.06;318946;30;3622;-74
2022/08/20 00:36:50;;;;;;;383.93;334.50;;;;;;;28.83;48.57;99094.25;315814;31;1216;-74
2022/08/20 00:37:01;;;;;;;382.70;333.80;;;;;;;28.83;49.14;99094.25;320012;30;3496;-74
2022/08/20 00:37:11;;;;;;;383.67;334.60;;;;;;;28.83;49.12;99096.09;320093;30;2453;-74
2022/08/20 00:37:21;;;;;;;381.83;333.97;;;;;;;28.83;48.70;99098.78;318352;31;862;-74
2022/08/20 00:37:32;;;;;;;382.42;335.90;;;;;;;28.83;48.98;99091.56;316215;31;2469;-74
2022/08/20 00:37:42;;;;;;;382.23;335.57;;;;;;;28.83;48.87;99093.41;313497;31;2928;-74
2022/08/20 00:37:53;;;;;;;383.47;332.77;;;;;;;28.83;48.70;99090.72;311513;31;812;-74
2022/08/20 00:38:03;;;;;;;384.77;334.38;;;;;;;28.84;48.60;99089.69;316665;30;3531;-74
2022/08/20 00:38:14;;;;;;;385.70;338.58;;;;;;;28.82;48.99;99086.34;316965;30;3873;-74
2022/08/20 00:38:24;;;;;;;386.27;338.10;;;;;;;28.80;49.12;99095.44;320012;30;1100;-74
2022/08/20 00:38:39;;;;;;;386.53;340.30;;;;;;;28.81;49.35;99090.88;315020;31;4638;-74
2022/08/20 00:38:49;;;;;;;386.30;338.38;;;;;;;28.82;48.73;99092.56;317472;31;4450;-74
2022/08/20 00:39:00;;;;;;;384.60;334.02;;;;;;;28.83;48.72;99093.41;316437;31;4620;-73
2022/08/20 00:39:10;;;;;;;384.40;328.93;;;;;;;28.81;48.98;99093.56;313230;31;4769;-73
2022/08/20 00:39:21;;;;;;;382.40;328.02;;;;;;;28.82;48.66;99091.75;312492;31;1389;-73
2022/08/20 00:39:31;;;;;;;383.53;333.47;;;;;;;28.82;48.91;99091.75;312840;31;3333;-73
2022/08/20 00:39:41;;;;;;;382.05;336.67;;;;;;;28.82;48.86;99091.75;313598;31;3288;-73
2022/08/20 00:39:52;;;;;;;381.23;337.30;;;;;;;28.82;48.77;99091.75;312640;31;855;-73
2022/08/20 00:40:04;;;;;;;379.27;331.37;;;;;;;28.82;48.83;99086.34;312444;31;4309;-73
2022/08/20 00:40:16;;;;;;;379.90;328.98;;;;;;;28.82;48.93;99094.44;313391;31;5108;-73
2022/08/20 00:40:33;;;;;;;383.30;331.10;;;;;;;28.82;48.90;99087.19;311191;31;5548;-74
2022/08/20 00:40:50;;;;;;;384.38;336.05;;;;;;;28.81;48.99;99090.88;307125;31;6084;-74
2022/08/20 00:41:00;;;;;;;385.88;336.55;;;;;;;28.79;49.30;99092.94;306388;32;6217;-73
2022/08/20 00:41:17;;;;;;;385.85;338.15;;;;;;;28.78;49.21;99092.09;304413;32;6475;-73
2022/08/20 00:41:27;;;;;;;382.27;336.60;;;;;;;28.79;49.15;99088.38;304059;31;6513;-73
2022/08/20 00:41:38;;;;;;;383.87;336.17;;;;;;;28.79;49.11;99088.38;305227;32;833;-73
2022/08/20 00:41:50;;;;;;;383.98;334.58;;;;;;;28.80;49.38;99092.72;303073;32;4790;-74
2022/08/20 00:42:01;;;;;;;384.10;334.15;;;;;;;28.79;49.22;99082.97;299413;32;5047;-74
2022/08/20 00:42:11;;;;;;;382.57;332.47;;;;;;;28.78;49.20;99089.41;297282;32;6310;-74
2022/08/20 00:42:22;;;;;;;382.65;332.17;;;;;;;28.78;49.52;99088.56;300759;32;1530;-74
2022/08/20 00:42:43;;;;;;;382.63;331.57;;;;;;;28.77;49.48;99087.72;299626;32;7647;-74
2022/08/20 00:42:56;;;;;;;380.85;329.08;;;;;;;28.76;49.00;99082.53;296891;33;942;-74
2022/08/20 00:43:24;;;;;;;383.20;336.50;;;;;;;28.76;49.25;99088.75;295662;33;970;-74
2022/08/20 00:43:40;;;;;;;382.48;332.13;;;;;;;28.75;49.13;99087.09;291748;33;8792;-73
2022/08/20 00:43:59;;;;;;;382.48;336.05;;;;;;;28.77;49.46;99089.59;291917;33;1215;-73
2022/08/20 00:44:18;;;;;;;379.23;334.63;;;;;;;28.75;49.43;99086.25;289022;34;881;-73
2022/08/20 00:44:28;;;;;;;377.83;336.00;;;;;;;28.74;49.32;99085.41;285355;34;8569;-73
2022/08/20 00:44:45;;;;;;;377.03;333.90;;;;;;;28.72;49.04;99087.47;284344;34;885;-73
2022/08/20 00:46:33;;;;;;;374.67;308.17;;;;;;;28.69;49.56;99087.84;2499934;27;20512;-73
2022/08/20 00:46:44;;;;;;;389.57;339.07;;;;;;;28.68;49.68;99080.78;354288;27;891;-73
2022/08/20 00:46:54;;;;;;;384.77;334.33;;;;;;;28.69;49.27;99084.31;350980;28;1419;-73
2022/08/20 00:47:05;;;;;;;379.80;329.20;;;;;;;28.66;49.53;99082.84;348777;28;694;-73
2022/08/20 00:47:15;;;;;;;377.97;327.57;;;;;;;28.65;49.44;99085.72;348679;28;883;-73
2022/08/20 00:47:26;;;;;;;378.63;329.20;;;;;;;28.64;49.73;99087.59;347159;28;738;-73
2022/08/20 00:47:40;;;;;;;381.38;333.45;;;;;;;28.65;49.67;99086.56;349988;28;1234;-73
2022/08/20 00:47:50;;;;;;;384.02;335.38;;;;;;;28.65;49.76;99091.94;349857;28;1341;-73
2022/08/20 00:48:01;;;;;;;382.33;334.17;;;;;;;28.64;49.35;99084.91;347198;28;879;-73
2022/08/20 00:48:11;;;;;;;377.63;330.87;;;;;;;28.64;49.88;99081.38;346437;28;825;-73
2022/08/20 00:48:24;;;;;;;379.95;336.58;;;;;;;28.65;49.90;99091.94;347248;28;1131;-73
2022/08/20 00:48:35;;;;;;;384.35;341.95;;;;;;;28.65;49.92;99083.03;348469;28;1379;-73
2022/08/20 00:48:49;;;;;;;389.05;346.23;;;;;;;28.66;49.52;99087.41;352699;28;1258;-73
2022/08/20 00:49:01;;;;;;;383.05;337.67;;;;;;;28.64;49.80;99092.13;350119;28;1066;-73
2022/08/20 00:49:16;;;;;;;380.00;331.90;;;;;;;28.63;49.64;99083.22;349986;28;864;-73
2022/08/20 00:49:28;;;;;;;378.40;325.65;;;;;;;28.63;49.60;99088.59;351155;28;1305;-73
2022/08/20 00:49:38;;;;;;;377.80;323.58;;;;;;;28.64;49.79;99090.28;348827;28;918;-73
2022/08/20 00:49:49;;;;;;;378.27;326.47;;;;;;;28.64;49.85;99095.66;348450;28;855;-73
2022/08/20 00:49:59;;;;;;;376.77;324.87;;;;;;;28.64;50.14;99084.91;348600;28;923;-73
2022/08/20 00:50:14;;;;;;;376.92;325.90;;;;;;;28.64;50.04;99090.28;346125;28;1223;-73
2022/08/20 00:50:33;;;;;;;380.17;330.33;;;;;;;28.64;50.12;99087.59;344884;28;1449;-73
2022/08/20 00:50:43;;;;;;;383.02;334.35;;;;;;;28.63;49.58;99088.59;347728;28;1508;-73
2022/08/20 00:50:57;;;;;;;382.63;334.40;;;;;;;28.63;49.75;99096.69;346113;28;1280;-73
2022/08/20 00:51:26;;;;;;;381.75;333.00;;;;;;;28.62;50.08;99096.88;345483;28;1322;-73
2022/08/20 00:51:41;;;;;;;375.20;321.45;;;;;;;28.60;49.95;99093.53;344383;28;856;-73
2022/08/20 00:52:01;;;;;;;378.45;327.20;;;;;;;28.59;50.00;99091.91;342968;28;910;-73
2022/08/20 00:52:15;;;;;;;377.70;330.55;;;;;;;28.60;49.79;99089.00;344483;28;892;-73
2022/08/20 00:52:26;;;;;;;377.73;333.95;;;;;;;28.60;50.31;99090.84;343656;28;1146;-73
2022/08/20 00:52:36;;;;;;;380.98;338.42;;;;;;;28.59;50.09;99087.34;341889;28;1070;-73
2022/08/20 00:52:48;;;;;;;383.63;341.30;;;;;;;28.56;50.38;99082.34;341536;28;1593;-73
2022/08/20 00:52:59;;;;;;;383.33;339.83;;;;;;;28.57;50.19;99089.41;344824;28;1174;-73
2022/08/20 00:53:09;;;;;;;382.15;333.90;;;;;;;28.58;50.34;99084.84;345993;28;1216;-73
2022/08/20 00:53:20;;;;;;;383.87;331.33;;;;;;;28.58;50.09;99080.31;345840;28;916;-73
2022/08/20 00:53:31;;;;;;;384.88;336.50;;;;;;;28.57;50.35;99092.09;345523;28;1295;-74
2022/08/20 00:53:42;;;;;;;382.90;333.75;;;;;;;28.56;50.11;99087.75;345458;28;1321;-74
2022/08/20 00:54:09;;;;;;;380.00;328.10;;;;;;;28.55;50.10;99091.44;343103;28;1256;-74
2022/08/20 00:54:47;;;;;;;382.10;333.98;;;;;;;28.57;50.23;99094.78;339186;29;850;-74
2022/08/20 00:54:58;;;;;;;380.63;332.52;;;;;;;28.56;49.77;99093.13;334990;29;1337;-74
2022/08/20 00:55:08;;;;;;;380.45;331.38;;;;;;;28.55;50.36;99091.44;337051;29;1519;-74
2022/08/20 00:55:20;;;;;;;381.70;330.67;;;;;;;28.55;50.27;99090.63;336428;29;1190;-74
2022/08/20 00:55:30;;;;;;;382.55;335.17;;;;;;;28.54;50.35;99092.47;331351;29;1484;-74
2022/08/20 00:55:41;;;;;;;383.90;340.63;;;;;;;28.54;49.96;99089.78;333918;29;1103;-74
2022/08/20 00:55:51;;;;;;;387.27;344.40;;;;;;;28.53;50.00;99088.13;337572;29;1396;-74
2022/08/20 00:56:03;;;;;;;387.33;339.20;;;;;;;28.53;50.04;99081.91;337855;29;1188;-74
2022/08/20 00:56:13;;;;;;;383.73;331.77;;;;;;;28.52;50.38;99091.84;335422;29;925;-74
2022/08/20 00:56:25;;;;;;;380.13;330.58;;;;;;;28.52;50.29;99091.84;335099;29;1613;-74
2022/08/20 00:56:35;;;;;;;379.75;335.45;;;;;;;28.52;50.28;99091.84;333958;29;965;-74
2022/08/20 00:56:53;;;;;;;386.83;344.27;;;;;;;28.53;49.93;99092.66;329687;29;1766;-74
2022/08/20 00:57:21;;;;;;;382.02;337.92;;;;;;;28.52;50.15;99094.53;327630;30;983;-74
2022/08/20 00:57:44;;;;;;;381.58;336.40;;;;;;;28.52;49.92;99089.13;324064;30;932;-74
2022/08/20 00:57:56;;;;;;;381.88;337.98;;;;;;;28.53;49.75;99093.50;325736;30;900;-74
2022/08/20 00:58:08;;;;;;;382.52;337.77;;;;;;;28.52;50.25;99091.00;329131;30;1411;-74